sensor_id;sensor_type;location;lat;lon;timestamp;P1;P2;P0
33948;PMS7003;20229;49.856;19.030;2023-11-21T00:00:36;6;5;3
33948;PMS7003;20229;49.856;19.030;2023-11-21T00:05:55;7;6;3
33948;PMS7003;20229;49.856;19.030;2023-11-21T00:11:13;8;6;4
33948;PMS7003;20229;49.856;19.030;2023-11-21T00:16:28;5;4;3
33948;PMS7003;20229;49.856;19.030;2023-11-21T00:27:04;6;5;3
33948;PMS7003;20229;49.856;19.030;2023-11-21T00:32:19;6;4;3
33948;PMS7003;20229;49.856;19.030;2023-11-21T00:37:33;6;5;3
33948;PMS7003;20229;49.856;19.030;2023-11-21T00:42:48;5;5;3
33948;PMS7003;20229;49.856;19.030;2023-11-21T00:48:02;8;7;4
33948;PMS7003;20229;49.856;19.030;2023-11-21T00:53:18;4;4;3
33948;PMS7003;20229;49.856;19.030;2023-11-21T00:58:32;7;3;2
33948;PMS7003;20229;49.856;19.030;2023-11-21T01:03:46;6;6;3
33948;PMS7003;20229;49.856;19.030;2023-11-21T01:09:01;5;4;3
33948;PMS7003;20229;49.856;19.030;2023-11-21T01:14:23;5;5;3
33948;PMS7003;20229;49.856;19.030;2023-11-21T01:19:40;6;5;4
33948;PMS7003;20229;49.856;19.030;2023-11-21T01:24:55;4;4;2
33948;PMS7003;20229;49.856;19.030;2023-11-21T01:30:11;4;4;3
33948;PMS7003;20229;49.856;19.030;2023-11-21T01:35:25;5;5;3
33948;PMS7003;20229;49.856;19.030;2023-11-21T01:40:39;5;4;3
33948;PMS7003;20229;49.856;19.030;2023-11-21T01:45:54;3;3;1
33948;PMS7003;20229;49.856;19.030;2023-11-21T01:51:10;4;3;2
33948;PMS7003;20229;49.856;19.030;2023-11-21T01:56:24;4;4;2
33948;PMS7003;20229;49.856;19.030;2023-11-21T02:01:39;4;4;2
33948;PMS7003;20229;49.856;19.030;2023-11-21T02:06:54;4;3;2
33948;PMS7003;20229;49.856;19.030;2023-11-21T02:12:09;3;3;1
33948;PMS7003;20229;49.856;19.030;2023-11-21T02:17:23;3;3;1
33948;PMS7003;20229;49.856;19.030;2023-11-21T02:22:40;3;3;2
33948;PMS7003;20229;49.856;19.030;2023-11-21T02:27:56;5;5;4
33948;PMS7003;20229;49.856;19.030;2023-11-21T02:33:12;6;6;4
33948;PMS7003;20229;49.856;19.030;2023-11-21T02:38:28;7;5;3
33948;PMS7003;20229;49.856;19.030;2023-11-21T02:43:42;6;6;4
33948;PMS7003;20229;49.856;19.030;2023-11-21T02:48:56;6;6;4
33948;PMS7003;20229;49.856;19.030;2023-11-21T02:54:11;8;6;4
33948;PMS7003;20229;49.856;19.030;2023-11-21T02:59:26;6;5;3
33948;PMS7003;20229;49.856;19.030;2023-11-21T03:04:40;7;3;3
33948;PMS7003;20229;49.856;19.030;2023-11-21T03:09:55;6;4;3
33948;PMS7003;20229;49.856;19.030;2023-11-21T03:15:09;5;4;3
33948;PMS7003;20229;49.856;19.030;2023-11-21T03:20:23;5;5;3
33948;PMS7003;20229;49.856;19.030;2023-11-21T03:25:39;4;4;3
33948;PMS7003;20229;49.856;19.030;2023-11-21T03:30:54;5;4;3
33948;PMS7003;20229;49.856;19.030;2023-11-21T03:36:09;7;5;3
33948;PMS7003;20229;49.856;19.030;2023-11-21T03:41:26;3;3;2
33948;PMS7003;20229;49.856;19.030;2023-11-21T03:46:40;3;3;2
33948;PMS7003;20229;49.856;19.030;2023-11-21T03:51:54;4;4;3
33948;PMS7003;20229;49.856;19.030;2023-11-21T03:57:08;7;6;3
33948;PMS7003;20229;49.856;19.030;2023-11-21T04:02:22;6;5;3
33948;PMS7003;20229;49.856;19.030;2023-11-21T04:07:39;5;4;3
33948;PMS7003;20229;49.856;19.030;2023-11-21T04:12:53;6;6;3
33948;PMS7003;20229;49.856;19.030;2023-11-21T04:18:07;4;4;3
33948;PMS7003;20229;49.856;19.030;2023-11-21T04:23:21;5;5;3
33948;PMS7003;20229;49.856;19.030;2023-11-21T04:28:38;3;3;2
33948;PMS7003;20229;49.856;19.030;2023-11-21T04:39:13;4;4;3
33948;PMS7003;20229;49.856;19.030;2023-11-21T04:44:27;3;3;2
33948;PMS7003;20229;49.856;19.030;2023-11-21T04:49:42;3;3;2
33948;PMS7003;20229;49.856;19.030;2023-11-21T04:54:57;6;5;3
33948;PMS7003;20229;49.856;19.030;2023-11-21T05:00:14;4;3;2
33948;PMS7003;20229;49.856;19.030;2023-11-21T05:05:29;4;3;2
33948;PMS7003;20229;49.856;19.030;2023-11-21T05:10:43;3;3;2
33948;PMS7003;20229;49.856;19.030;2023-11-21T05:15:57;5;3;2
33948;PMS7003;20229;49.856;19.030;2023-11-21T05:21:12;4;3;2
33948;PMS7003;20229;49.856;19.030;2023-11-21T05:26:26;4;4;3
33948;PMS7003;20229;49.856;19.030;2023-11-21T05:31:42;4;4;3
33948;PMS7003;20229;49.856;19.030;2023-11-21T05:37:00;6;5;3
33948;PMS7003;20229;49.856;19.030;2023-11-21T05:42:14;5;5;3
33948;PMS7003;20229;49.856;19.030;2023-11-21T05:47:28;5;5;3
33948;PMS7003;20229;49.856;19.030;2023-11-21T05:52:42;6;4;3
33948;PMS7003;20229;49.856;19.030;2023-11-21T05:57:58;7;6;4
33948;PMS7003;20229;49.856;19.030;2023-11-21T06:03:12;7;7;4
33948;PMS7003;20229;49.856;19.030;2023-11-21T06:08:26;6;6;4
33948;PMS7003;20229;49.856;19.030;2023-11-21T06:13:40;8;8;4
33948;PMS7003;20229;49.856;19.030;2023-11-21T06:18:55;8;8;5
33948;PMS7003;20229;49.856;19.030;2023-11-21T06:24:09;10;8;6
33948;PMS7003;20229;49.856;19.030;2023-11-21T06:29:23;8;6;4
33948;PMS7003;20229;49.856;19.030;2023-11-21T06:34:41;8;7;4
33948;PMS7003;20229;49.856;19.030;2023-11-21T06:39:56;11;10;6
33948;PMS7003;20229;49.856;19.030;2023-11-21T06:45:13;8;7;5
33948;PMS7003;20229;49.856;19.030;2023-11-21T06:50:28;9;7;5
33948;PMS7003;20229;49.856;19.030;2023-11-21T06:55:42;12;8;5
33948;PMS7003;20229;49.856;19.030;2023-11-21T07:00:56;11;9;5
33948;PMS7003;20229;49.856;19.030;2023-11-21T07:06:11;11;10;7
33948;PMS7003;20229;49.856;19.030;2023-11-21T07:11:27;11;10;6
33948;PMS7003;20229;49.856;19.030;2023-11-21T07:16:41;11;8;6
33948;PMS7003;20229;49.856;19.030;2023-11-21T07:21:55;9;8;5
33948;PMS7003;20229;49.856;19.030;2023-11-21T07:27:09;9;9;6
33948;PMS7003;20229;49.856;19.030;2023-11-21T07:32:23;8;8;6
33948;PMS7003;20229;49.856;19.030;2023-11-21T07:37:37;14;12;6
33948;PMS7003;20229;49.856;19.030;2023-11-21T07:42:52;9;9;5
33948;PMS7003;20229;49.856;19.030;2023-11-21T07:48:08;10;9;6
33948;PMS7003;20229;49.856;19.030;2023-11-21T07:53:22;11;10;7
33948;PMS7003;20229;49.856;19.030;2023-11-21T07:58:43;8;8;5
33948;PMS7003;20229;49.856;19.030;2023-11-21T08:03:58;10;9;6
33948;PMS7003;20229;49.856;19.030;2023-11-21T08:09:16;10;9;6
33948;PMS7003;20229;49.856;19.030;2023-11-21T08:14:31;7;6;5
33948;PMS7003;20229;49.856;19.030;2023-11-21T08:19:45;9;9;6
33948;PMS7003;20229;49.856;19.030;2023-11-21T08:25:04;9;7;5
33948;PMS7003;20229;49.856;19.030;2023-11-21T08:30:19;13;12;7
33948;PMS7003;20229;49.856;19.030;2023-11-21T08:35:36;8;7;4
33948;PMS7003;20229;49.856;19.030;2023-11-21T08:40:51;9;8;5
33948;PMS7003;20229;49.856;19.030;2023-11-21T08:46:06;10;7;5
33948;PMS7003;20229;49.856;19.030;2023-11-21T08:51:21;9;7;5
33948;PMS7003;20229;49.856;19.030;2023-11-21T08:56:35;9;9;6
33948;PMS7003;20229;49.856;19.030;2023-11-21T09:01:49;7;7;5
33948;PMS7003;20229;49.856;19.030;2023-11-21T09:07:04;9;8;4
33948;PMS7003;20229;49.856;19.030;2023-11-21T09:12:18;11;9;5
33948;PMS7003;20229;49.856;19.030;2023-11-21T09:17:36;17;13;8
33948;PMS7003;20229;49.856;19.030;2023-11-21T09:22:50;12;11;8
33948;PMS7003;20229;49.856;19.030;2023-11-21T09:28:05;12;8;5
33948;PMS7003;20229;49.856;19.030;2023-11-21T09:33:22;11;10;6
33948;PMS7003;20229;49.856;19.030;2023-11-21T09:38:38;10;8;4
33948;PMS7003;20229;49.856;19.030;2023-11-21T09:43:53;11;10;7
33948;PMS7003;20229;49.856;19.030;2023-11-21T09:49:14;9;8;4
33948;PMS7003;20229;49.856;19.030;2023-11-21T09:54:32;9;8;5
33948;PMS7003;20229;49.856;19.030;2023-11-21T09:59:51;15;12;7
33948;PMS7003;20229;49.856;19.030;2023-11-21T10:08:37;12;11;7
33948;PMS7003;20229;49.856;19.030;2023-11-21T10:14:02;12;7;5
33948;PMS7003;20229;49.856;19.030;2023-11-21T10:19:18;11;9;6
33948;PMS7003;20229;49.856;19.030;2023-11-21T10:24:34;11;8;5
33948;PMS7003;20229;49.856;19.030;2023-11-21T10:29:51;10;9;6
33948;PMS7003;20229;49.856;19.030;2023-11-21T10:35:05;8;8;5
33948;PMS7003;20229;49.856;19.030;2023-11-21T10:40:27;8;5;3
33948;PMS7003;20229;49.856;19.030;2023-11-21T10:45:42;7;7;4
33948;PMS7003;20229;49.856;19.030;2023-11-21T10:50:58;7;6;4
33948;PMS7003;20229;49.856;19.030;2023-11-21T10:56:13;9;7;4
33948;PMS7003;20229;49.856;19.030;2023-11-21T11:01:34;7;7;4
33948;PMS7003;20229;49.856;19.030;2023-11-21T11:06:50;9;6;4
33948;PMS7003;20229;49.856;19.030;2023-11-21T11:12:10;8;7;5
33948;PMS7003;20229;49.856;19.030;2023-11-21T11:17:25;10;7;5
33948;PMS7003;20229;49.856;19.030;2023-11-21T11:28:07;7;6;4
33948;PMS7003;20229;49.856;19.030;2023-11-21T11:38:52;12;8;5
33948;PMS7003;20229;49.856;19.030;2023-11-21T11:44:45;9;9;6
33948;PMS7003;20229;49.856;19.030;2023-11-21T11:49:37;8;8;4
33948;PMS7003;20229;49.856;19.030;2023-11-21T11:54:53;10;9;5
33948;PMS7003;20229;49.856;19.030;2023-11-21T12:00:11;12;11;6
33948;PMS7003;20229;49.856;19.030;2023-11-21T12:06:01;8;7;5
33948;PMS7003;20229;49.856;19.030;2023-11-21T12:11:17;11;10;5
33948;PMS7003;20229;49.856;19.030;2023-11-21T12:16:32;12;10;6
33948;PMS7003;20229;49.856;19.030;2023-11-21T12:21:48;2;1;0
33948;PMS7003;20229;49.856;19.030;2023-11-21T12:27:03;11;8;5
33948;PMS7003;20229;49.856;19.030;2023-11-21T12:32:17;11;9;6
33948;PMS7003;20229;49.856;19.030;2023-11-21T12:37:32;10;9;5
33948;PMS7003;20229;49.856;19.030;2023-11-21T12:42:47;13;12;6
33948;PMS7003;20229;49.856;19.030;2023-11-21T12:48:04;12;11;7
33948;PMS7003;20229;49.856;19.030;2023-11-21T12:53:24;16;14;10
33948;PMS7003;20229;49.856;19.030;2023-11-21T12:58:40;13;13;8
33948;PMS7003;20229;49.856;19.030;2023-11-21T13:04:00;17;12;7
33948;PMS7003;20229;49.856;19.030;2023-11-21T13:09:18;11;10;7
33948;PMS7003;20229;49.856;19.030;2023-11-21T13:14:34;13;11;7
33948;PMS7003;20229;49.856;19.030;2023-11-21T13:19:48;5;5;4
33948;PMS7003;20229;49.856;19.030;2023-11-21T13:25:03;6;5;3
33948;PMS7003;20229;49.856;19.030;2023-11-21T13:30:20;6;5;3
33948;PMS7003;20229;49.856;19.030;2023-11-21T13:35:46;9;8;4
33948;PMS7003;20229;49.856;19.030;2023-11-21T13:41:05;13;9;5
33948;PMS7003;20229;49.856;19.030;2023-11-21T13:46:23;9;9;6
33948;PMS7003;20229;49.856;19.030;2023-11-21T13:51:37;11;9;5
33948;PMS7003;20229;49.856;19.030;2023-11-21T13:57:01;12;10;6
33948;PMS7003;20229;49.856;19.030;2023-11-21T14:02:19;9;8;6
33948;PMS7003;20229;49.856;19.030;2023-11-21T14:07:43;9;7;5
33948;PMS7003;20229;49.856;19.030;2023-11-21T14:13:01;11;11;8
33948;PMS7003;20229;49.856;19.030;2023-11-21T14:18:15;17;15;9
33948;PMS7003;20229;49.856;19.030;2023-11-21T14:23:34;9;8;4
33948;PMS7003;20229;49.856;19.030;2023-11-21T14:28:52;10;8;5
33948;PMS7003;20229;49.856;19.030;2023-11-21T14:34:07;7;7;4
33948;PMS7003;20229;49.856;19.030;2023-11-21T14:39:22;10;9;6
33948;PMS7003;20229;49.856;19.030;2023-11-21T14:44:42;16;13;8
33948;PMS7003;20229;49.856;19.030;2023-11-21T14:49:56;17;15;10
33948;PMS7003;20229;49.856;19.030;2023-11-21T14:55:18;22;19;13
33948;PMS7003;20229;49.856;19.030;2023-11-21T15:01:11;25;21;11
33948;PMS7003;20229;49.856;19.030;2023-11-21T15:06:26;17;16;10
33948;PMS7003;20229;49.856;19.030;2023-11-21T15:11:43;25;21;13
33948;PMS7003;20229;49.856;19.030;2023-11-21T15:16:57;22;18;12
33948;PMS7003;20229;49.856;19.030;2023-11-21T15:27:40;20;19;12
33948;PMS7003;20229;49.856;19.030;2023-11-21T15:32:54;18;17;11
33948;PMS7003;20229;49.856;19.030;2023-11-21T15:38:09;19;18;10
33948;PMS7003;20229;49.856;19.030;2023-11-21T15:43:23;16;14;9
33948;PMS7003;20229;49.856;19.030;2023-11-21T15:48:37;20;18;12
33948;PMS7003;20229;49.856;19.030;2023-11-21T15:53:58;19;16;10
33948;PMS7003;20229;49.856;19.030;2023-11-21T15:59:12;23;20;13
33948;PMS7003;20229;49.856;19.030;2023-11-21T16:04:27;22;17;11
33948;PMS7003;20229;49.856;19.030;2023-11-21T16:09:43;22;18;12
33948;PMS7003;20229;49.856;19.030;2023-11-21T16:14:59;19;17;10
33948;PMS7003;20229;49.856;19.030;2023-11-21T16:20:20;17;16;10
33948;PMS7003;20229;49.856;19.030;2023-11-21T16:25:34;21;18;11
33948;PMS7003;20229;49.856;19.030;2023-11-21T16:30:50;23;19;12
33948;PMS7003;20229;49.856;19.030;2023-11-21T16:36:04;24;21;13
33948;PMS7003;20229;49.856;19.030;2023-11-21T16:41:19;23;19;11
33948;PMS7003;20229;49.856;19.030;2023-11-21T16:46:33;25;21;14
33948;PMS7003;20229;49.856;19.030;2023-11-21T16:51:47;26;20;13
33948;PMS7003;20229;49.856;19.030;2023-11-21T16:57:03;24;22;14
33948;PMS7003;20229;49.856;19.030;2023-11-21T17:02:18;29;25;16
33948;PMS7003;20229;49.856;19.030;2023-11-21T17:07:35;34;26;16
33948;PMS7003;20229;49.856;19.030;2023-11-21T17:12:50;28;24;14
33948;PMS7003;20229;49.856;19.030;2023-11-21T17:18:04;34;28;17
33948;PMS7003;20229;49.856;19.030;2023-11-21T17:23:19;29;23;14
33948;PMS7003;20229;49.856;19.030;2023-11-21T17:28:32;29;25;16
33948;PMS7003;20229;49.856;19.030;2023-11-21T17:33:47;35;29;18
33948;PMS7003;20229;49.856;19.030;2023-11-21T17:39:01;32;27;17
33948;PMS7003;20229;49.856;19.030;2023-11-21T17:44:20;36;29;18
33948;PMS7003;20229;49.856;19.030;2023-11-21T17:49:34;41;32;19
33948;PMS7003;20229;49.856;19.030;2023-11-21T17:54:48;37;29;19
33948;PMS7003;20229;49.856;19.030;2023-11-21T18:00:03;39;32;18
33948;PMS7003;20229;49.856;19.030;2023-11-21T18:05:22;41;32;20
33948;PMS7003;20229;49.856;19.030;2023-11-21T18:10:37;36;29;18
33948;PMS7003;20229;49.856;19.030;2023-11-21T18:15:52;39;31;18
33948;PMS7003;20229;49.856;19.030;2023-11-21T18:21:06;38;30;18
33948;PMS7003;20229;49.856;19.030;2023-11-21T18:26:20;40;31;19
33948;PMS7003;20229;49.856;19.030;2023-11-21T18:31:35;38;31;19
33948;PMS7003;20229;49.856;19.030;2023-11-21T18:36:49;38;30;18
33948;PMS7003;20229;49.856;19.030;2023-11-21T18:42:07;35;28;16
33948;PMS7003;20229;49.856;19.030;2023-11-21T18:47:21;34;27;16
33948;PMS7003;20229;49.856;19.030;2023-11-21T18:52:36;31;24;16
33948;PMS7003;20229;49.856;19.030;2023-11-21T18:57:50;35;28;17
33948;PMS7003;20229;49.856;19.030;2023-11-21T19:03:04;27;21;12
33948;PMS7003;20229;49.856;19.030;2023-11-21T19:08:22;29;23;14
33948;PMS7003;20229;49.856;19.030;2023-11-21T19:13:36;45;36;22
33948;PMS7003;20229;49.856;19.030;2023-11-21T19:18:51;56;47;25
33948;PMS7003;20229;49.856;19.030;2023-11-21T19:24:06;34;28;17
33948;PMS7003;20229;49.856;19.030;2023-11-21T19:29:20;35;27;17
33948;PMS7003;20229;49.856;19.030;2023-11-21T19:34:37;33;27;16
33948;PMS7003;20229;49.856;19.030;2023-11-21T19:39:51;36;27;17
33948;PMS7003;20229;49.856;19.030;2023-11-21T19:45:06;32;25;16
33948;PMS7003;20229;49.856;19.030;2023-11-21T19:50:21;34;26;16
33948;PMS7003;20229;49.856;19.030;2023-11-21T19:55:35;29;24;14
33948;PMS7003;20229;49.856;19.030;2023-11-21T20:00:51;31;25;15
33948;PMS7003;20229;49.856;19.030;2023-11-21T20:06:05;30;24;16
33948;PMS7003;20229;49.856;19.030;2023-11-21T20:11:21;28;23;14
33948;PMS7003;20229;49.856;19.030;2023-11-21T20:16:38;27;22;14
33948;PMS7003;20229;49.856;19.030;2023-11-21T20:21:54;31;24;16
33948;PMS7003;20229;49.856;19.030;2023-11-21T20:27:09;25;21;12
33948;PMS7003;20229;49.856;19.030;2023-11-21T20:32:23;22;19;12
33948;PMS7003;20229;49.856;19.030;2023-11-21T20:37:37;25;22;14
33948;PMS7003;20229;49.856;19.030;2023-11-21T20:42:51;27;23;14
33948;PMS7003;20229;49.856;19.030;2023-11-21T20:48:07;20;18;12
33948;PMS7003;20229;49.856;19.030;2023-11-21T20:53:21;20;17;11
33948;PMS7003;20229;49.856;19.030;2023-11-21T20:58:36;22;20;13
33948;PMS7003;20229;49.856;19.030;2023-11-21T21:03:50;26;22;14
33948;PMS7003;20229;49.856;19.030;2023-11-21T21:09:04;27;22;13
33948;PMS7003;20229;49.856;19.030;2023-11-21T21:14:18;18;16;10
33948;PMS7003;20229;49.856;19.030;2023-11-21T21:19:32;17;17;9
33948;PMS7003;20229;49.856;19.030;2023-11-21T21:24:48;15;14;8
33948;PMS7003;20229;49.856;19.030;2023-11-21T21:30:02;11;10;7
33948;PMS7003;20229;49.856;19.030;2023-11-21T21:35:17;11;9;6
33948;PMS7003;20229;49.856;19.030;2023-11-21T21:40:31;12;11;7
33948;PMS7003;20229;49.856;19.030;2023-11-21T21:45:48;14;11;7
33948;PMS7003;20229;49.856;19.030;2023-11-21T21:51:03;8;7;5
33948;PMS7003;20229;49.856;19.030;2023-11-21T21:56:20;9;7;4
33948;PMS7003;20229;49.856;19.030;2023-11-21T22:01:34;8;7;5
33948;PMS7003;20229;49.856;19.030;2023-11-21T22:06:50;5;5;4
33948;PMS7003;20229;49.856;19.030;2023-11-21T22:12:06;10;8;5
33948;PMS7003;20229;49.856;19.030;2023-11-21T22:17:23;10;8;6
33948;PMS7003;20229;49.856;19.030;2023-11-21T22:22:37;12;11;7
33948;PMS7003;20229;49.856;19.030;2023-11-21T22:27:54;13;11;7
33948;PMS7003;20229;49.856;19.030;2023-11-21T22:33:08;17;15;10
33948;PMS7003;20229;49.856;19.030;2023-11-21T22:38:23;16;14;9
33948;PMS7003;20229;49.856;19.030;2023-11-21T22:43:38;16;13;8
33948;PMS7003;20229;49.856;19.030;2023-11-21T22:48:52;16;14;7
33948;PMS7003;20229;49.856;19.030;2023-11-21T22:54:06;17;14;8
33948;PMS7003;20229;49.856;19.030;2023-11-21T22:59:21;15;12;8
33948;PMS7003;20229;49.856;19.030;2023-11-21T23:04:35;14;12;8
33948;PMS7003;20229;49.856;19.030;2023-11-21T23:09:49;11;10;6
33948;PMS7003;20229;49.856;19.030;2023-11-21T23:15:05;10;9;6
33948;PMS7003;20229;49.856;19.030;2023-11-21T23:20:20;11;10;7
33948;PMS7003;20229;49.856;19.030;2023-11-21T23:25:36;10;9;6
33948;PMS7003;20229;49.856;19.030;2023-11-21T23:30:51;11;7;5
33948;PMS7003;20229;49.856;19.030;2023-11-21T23:36:05;9;7;4
33948;PMS7003;20229;49.856;19.030;2023-11-21T23:41:20;10;8;6
33948;PMS7003;20229;49.856;19.030;2023-11-21T23:46:36;10;8;5
33948;PMS7003;20229;49.856;19.030;2023-11-21T23:51:50;9;8;6
33948;PMS7003;20229;49.856;19.030;2023-11-21T23:57:04;8;8;5
